Time;durP1;ratioP1;P1;durP2;ratioP2;P2;SDS_P1;SDS_P2;PMS_P1;PMS_P2;Temp;Humidity;BMP_temperature;BMP_pressure;BME280_temperature;BME280_humidity;BME280_pressure;Samples;Min_cycle;Max_cycle;Signal;HPM_P1;HPM_P2
2023/09/14 00:00:22;;;;;;;3.40;3.00;;;;;;;-128.00;-1.00;-1.00;19484;316;7505231;-36
2023/09/14 00:02:48;;;;;;;3.60;3.30;;;;;;;-128.00;-1.00;-1.00;19481;316;7505404;-35
2023/09/14 00:05:15;;;;;;;5.00;3.90;;;;;;;-128.00;-1.00;-1.00;19480;322;7505496;-36
2023/09/14 00:07:41;;;;;;;3.70;2.60;;;;;;;-128.00;-1.00;-1.00;19485;321;7504995;-36
2023/09/14 00:10:08;;;;;;;5.80;3.40;;;;;;;-128.00;-1.00;-1.00;19498;316;7506167;-33
2023/09/14 00:12:34;;;;;;;3.00;2.80;;;;;;;-128.00;-1.00;-1.00;19056;317;7504908;-36
2023/09/14 00:15:00;;;;;;;3.20;2.90;;;;;;;-128.00;-1.00;-1.00;19460;322;7506634;-32
2023/09/14 00:17:26;;;;;;;5.30;3.40;;;;;;;-128.00;-1.00;-1.00;19478;316;7504633;-32
2023/09/14 00:19:53;;;;;;;8.60;3.30;;;;;;;-128.00;-1.00;-1.00;19065;322;7506502;-35
2023/09/14 00:22:19;;;;;;;5.90;2.90;;;;;;;-128.00;-1.00;-1.00;19502;316;7505249;-36
2023/09/14 00:24:45;;;;;;;6.00;2.10;;;;;;;-128.00;-1.00;-1.00;19470;317;7505727;-32
2023/09/14 00:27:11;;;;;;;4.00;2.90;;;;;;;-128.00;-1.00;-1.00;19468;317;7504464;-35
2023/09/14 00:29:37;;;;;;;5.00;3.00;;;;;;;-128.00;-1.00;-1.00;19482;321;7505369;-35
2023/09/14 00:32:04;;;;;;;4.70;3.00;;;;;;;-128.00;-1.00;-1.00;19492;321;7505154;-36
2023/09/14 00:34:30;;;;;;;2.20;2.00;;;;;;;-128.00;-1.00;-1.00;19067;317;7504693;-35
2023/09/14 01:18:41;;;;;;;4.70;4.30;;;;;;;-99.21;19.20;19871.06;20164;321;8076005;-34
2023/09/14 01:21:26;;;;;;;5.10;4.70;;;;;;;-128.00;-1.00;-1.00;18564;324;7505081;-32
2023/09/14 01:24:17;;;;;;;2.50;2.20;;;;;;;-128.00;-1.00;-1.00;19035;317;7506351;-31
2023/09/14 01:26:44;;;;;;;2.80;2.60;;;;;;;-128.00;-1.00;-1.00;19061;322;7504689;-32
2023/09/14 01:29:10;;;;;;;3.00;2.70;;;;;;;-128.00;-1.00;-1.00;19054;317;7505193;-34
2023/09/14 01:31:37;;;;;;;4.00;3.60;;;;;;;-128.00;-1.00;-1.00;19481;322;7504959;-31
2023/09/14 01:34:03;;;;;;;3.90;3.10;;;;;;;-128.00;-1.00;-1.00;19058;322;7504897;-35
2023/09/14 01:36:34;;;;;;;2.80;2.40;;;;;;;-128.00;-1.00;-1.00;19054;317;7504362;-35
2023/09/14 01:39:00;;;;;;;3.40;3.10;;;;;;;-128.00;-1.00;-1.00;19049;322;7505224;-35
2023/09/14 01:41:25;;;;;;;2.50;2.10;;;;;;;-128.00;-1.00;-1.00;19070;317;7505046;-35
2023/09/14 01:43:53;;;;;;;2.80;2.20;;;;;;;-128.00;-1.00;-1.00;19030;317;7506230;-35
2023/09/14 01:46:18;;;;;;;2.80;2.30;;;;;;;-128.00;-1.00;-1.00;19050;322;7504758;-33
2023/09/14 01:48:45;;;;;;;3.00;2.70;;;;;;;-128.00;-1.00;-1.00;19482;317;7504535;-34
2023/09/14 01:51:11;;;;;;;3.60;2.40;;;;;;;-128.00;-1.00;-1.00;19484;317;7504403;-32
2023/09/14 01:53:37;;;;;;;4.80;3.20;;;;;;;-128.00;-1.00;-1.00;19042;318;7504961;-32
2023/09/14 01:56:03;;;;;;;5.60;2.80;;;;;;;-128.00;-1.00;-1.00;19054;318;7507398;-34
2023/09/14 01:58:29;;;;;;;2.10;1.90;;;;;;;-128.00;-1.00;-1.00;19049;317;7504705;-32
2023/09/14 02:00:56;;;;;;;2.70;2.00;;;;;;;-128.00;-1.00;-1.00;19437;322;7504958;-32
2023/09/14 02:03:22;;;;;;;3.10;2.80;;;;;;;-128.00;-1.00;-1.00;19041;321;7505695;-32
2023/09/14 02:05:58;;;;;;;1.90;1.80;;;;;;;-128.00;-1.00;-1.00;19054;321;7504585;-35
2023/09/14 02:08:23;;;;;;;4.30;3.20;;;;;;;-128.00;-1.00;-1.00;19017;318;7505046;-33
2023/09/14 02:10:49;;;;;;;3.50;3.10;;;;;;;-128.00;-1.00;-1.00;19061;322;7506435;-35
2023/09/14 02:13:15;;;;;;;2.30;2.10;;;;;;;-128.00;-1.00;-1.00;19059;318;7504925;-31
2023/09/14 02:15:40;;;;;;;2.40;2.20;;;;;;;-128.00;-1.00;-1.00;19063;322;7505290;-34
2023/09/14 02:18:07;;;;;;;3.80;3.20;;;;;;;-128.00;-1.00;-1.00;19416;319;7505224;-35
2023/09/14 02:20:35;;;;;;;3.50;3.20;;;;;;;-128.00;-1.00;-1.00;19038;322;7504477;-31
2023/09/14 02:23:03;;;;;;;10.20;2.40;;;;;;;-128.00;-1.00;-1.00;19005;323;7504687;-34
2023/09/14 02:25:29;;;;;;;2.60;2.40;;;;;;;-128.00;-1.00;-1.00;19036;321;7504804;-31
2023/09/14 02:27:55;;;;;;;3.20;2.80;;;;;;;-128.00;-1.00;-1.00;19439;317;7507082;-32
2023/09/14 02:30:21;;;;;;;4.10;3.40;;;;;;;-128.00;-1.00;-1.00;19421;318;7505018;-35
2023/09/14 02:32:47;;;;;;;2.40;1.80;;;;;;;-128.00;-1.00;-1.00;19431;317;7504567;-35
2023/09/14 02:35:13;;;;;;;3.00;2.80;;;;;;;-128.00;-1.00;-1.00;19444;317;7506302;-33
2023/09/14 02:37:39;;;;;;;4.90;2.60;;;;;;;-128.00;-1.00;-1.00;19443;322;7504526;-33
2023/09/14 02:40:06;;;;;;;3.30;2.80;;;;;;;-128.00;-1.00;-1.00;19423;320;7504661;-32
2023/09/14 02:42:36;;;;;;;3.20;2.90;;;;;;;-128.00;-1.00;-1.00;18976;317;7504721;-35
2023/09/14 02:45:02;;;;;;;1.60;1.30;;;;;;;-128.00;-1.00;-1.00;19000;317;7505002;-32
2023/09/14 02:47:28;;;;;;;2.80;2.50;;;;;;;-128.00;-1.00;-1.00;19025;317;7504876;-32
2023/09/14 02:49:54;;;;;;;3.80;3.10;;;;;;;-128.00;-1.00;-1.00;19448;318;7505464;-34
2023/09/14 02:52:20;;;;;;;5.80;3.40;;;;;;;-128.00;-1.00;-1.00;19451;317;7504980;-32
2023/09/14 02:54:47;;;;;;;6.40;4.60;;;;;;;-128.00;-1.00;-1.00;19438;317;7504625;-32
2023/09/14 02:57:13;;;;;;;5.90;3.30;;;;;;;-128.00;-1.00;-1.00;19457;323;7505624;-35
2023/09/14 02:59:39;;;;;;;5.40;3.30;;;;;;;-128.00;-1.00;-1.00;19467;323;7505695;-34
2023/09/14 03:02:05;;;;;;;5.30;3.80;;;;;;;-128.00;-1.00;-1.00;19395;317;7504501;-32
2023/09/14 03:04:31;;;;;;;4.60;3.50;;;;;;;-128.00;-1.00;-1.00;19418;317;7505181;-33
2023/09/14 03:06:57;;;;;;;6.10;3.90;;;;;;;-128.00;-1.00;-1.00;19412;319;7507560;-35
2023/09/14 03:09:24;;;;;;;3.80;3.40;;;;;;;-128.00;-1.00;-1.00;19449;317;7504311;-35
2023/09/14 03:11:50;;;;;;;4.00;3.30;;;;;;;-128.00;-1.00;-1.00;19448;318;7505781;-32
2023/09/14 03:14:16;;;;;;;4.70;3.60;;;;;;;-128.00;-1.00;-1.00;19447;323;7505416;-32
2023/09/14 03:16:42;;;;;;;4.40;4.00;;;;;;;-128.00;-1.00;-1.00;19411;317;7505087;-33
2023/09/14 03:19:08;;;;;;;5.20;3.30;;;;;;;-128.00;-1.00;-1.00;19389;323;7504593;-32
2023/09/14 03:21:35;;;;;;;4.50;3.50;;;;;;;-128.00;-1.00;-1.00;19442;322;7504810;-35
2023/09/14 03:24:01;;;;;;;4.90;3.00;;;;;;;-128.00;-1.00;-1.00;19440;323;7505075;-33
2023/09/14 03:26:27;;;;;;;6.20;4.60;;;;;;;-128.00;-1.00;-1.00;19442;323;7507262;-35
2023/09/14 03:28:53;;;;;;;9.00;4.90;;;;;;;-128.00;-1.00;-1.00;19456;322;7504710;-35
2023/09/14 03:31:20;;;;;;;8.40;5.10;;;;;;;-128.00;-1.00;-1.00;19425;317;7505487;-33
2023/09/14 03:33:47;;;;;;;5.20;4.60;;;;;;;-128.00;-1.00;-1.00;19449;317;7505437;-35
2023/09/14 03:36:14;;;;;;;5.10;4.50;;;;;;;-128.00;-1.00;-1.00;19065;318;7505037;-35
2023/09/14 03:38:39;;;;;;;7.00;3.60;;;;;;;-128.00;-1.00;-1.00;19045;318;7505424;-36
2023/09/14 03:41:05;;;;;;;17.90;6.00;;;;;;;-128.00;-1.00;-1.00;19440;323;7504428;-34
2023/09/14 03:43:31;;;;;;;5.40;4.90;;;;;;;-128.00;-1.00;-1.00;19441;323;7505257;-36
2023/09/14 03:45:57;;;;;;;11.50;5.70;;;;;;;-128.00;-1.00;-1.00;19461;322;7505354;-36
2023/09/14 03:48:23;;;;;;;5.40;4.80;;;;;;;-128.00;-1.00;-1.00;19425;323;7504775;-36
2023/09/14 03:50:58;;;;;;;8.10;5.70;;;;;;;-128.00;-1.00;-1.00;19422;318;7505289;-34
2023/09/14 03:53:25;;;;;;;19.50;5.80;;;;;;;-128.00;-1.00;-1.00;18995;322;7505361;-33
2023/09/14 03:55:52;;;;;;;5.00;3.90;;;;;;;-128.00;-1.00;-1.00;19029;322;7504629;-36
2023/09/14 03:58:18;;;;;;;5.60;5.00;;;;;;;-128.00;-1.00;-1.00;19015;323;7505348;-35
2023/09/14 04:00:44;;;;;;;4.60;3.80;;;;;;;-128.00;-1.00;-1.00;19032;318;7505710;-36
2023/09/14 04:03:10;;;;;;;7.10;3.90;;;;;;;-128.00;-1.00;-1.00;19051;322;7504391;-33
2023/09/14 04:05:36;;;;;;;10.30;5.10;;;;;;;-128.00;-1.00;-1.00;19041;317;7506067;-36
2023/09/14 04:08:02;;;;;;;5.80;5.00;;;;;;;-128.00;-1.00;-1.00;19032;317;7505071;-36
2023/09/14 04:10:28;;;;;;;4.80;4.10;;;;;;;-128.00;-1.00;-1.00;18988;318;7504949;-33
2023/09/14 04:12:57;;;;;;;15.80;6.10;;;;;;;-128.00;-1.00;-1.00;19046;318;7504641;-36
2023/09/14 04:15:22;;;;;;;6.00;4.40;;;;;;;-128.00;-1.00;-1.00;19022;317;7505135;-33
2023/09/14 04:17:49;;;;;;;6.40;4.40;;;;;;;-128.00;-1.00;-1.00;19445;322;7504663;-34
2023/09/14 04:20:15;;;;;;;12.50;7.40;;;;;;;-128.00;-1.00;-1.00;19474;317;7504537;-34
2023/09/14 04:22:41;;;;;;;6.60;5.50;;;;;;;-128.00;-1.00;-1.00;19432;318;7504579;-33
2023/09/14 04:25:07;;;;;;;8.60;7.30;;;;;;;-128.00;-1.00;-1.00;19450;322;7504668;-32
2023/09/14 04:27:34;;;;;;;6.20;4.60;;;;;;;-128.00;-1.00;-1.00;19027;322;7504823;-33
2023/09/14 04:30:00;;;;;;;7.50;5.60;;;;;;;-128.00;-1.00;-1.00;19440;318;7505389;-35
2023/09/14 04:32:26;;;;;;;7.50;5.90;;;;;;;-128.00;-1.00;-1.00;19459;317;7505164;-31
2023/09/14 04:34:52;;;;;;;5.10;4.60;;;;;;;-128.00;-1.00;-1.00;19442;318;7505982;-34
2023/09/14 04:37:18;;;;;;;7.00;6.20;;;;;;;-128.00;-1.00;-1.00;19449;317;7504842;-34
2023/09/14 04:39:45;;;;;;;5.20;4.30;;;;;;;-128.00;-1.00;-1.00;19433;323;7504687;-34
2023/09/14 04:42:11;;;;;;;16.70;5.00;;;;;;;-128.00;-1.00;-1.00;19020;317;7504683;-36
2023/09/14 04:44:37;;;;;;;7.60;5.20;;;;;;;-128.00;-1.00;-1.00;19416;323;7504861;-34
2023/09/14 04:47:03;;;;;;;5.70;5.00;;;;;;;-128.00;-1.00;-1.00;19418;323;7504345;-35
2023/09/14 04:49:29;;;;;;;6.30;4.90;;;;;;;-128.00;-1.00;-1.00;19434;317;7505383;-32
2023/09/14 04:51:56;;;;;;;10.50;5.30;;;;;;;-128.00;-1.00;-1.00;19457;323;7505111;-33
2023/09/14 04:54:22;;;;;;;6.50;5.60;;;;;;;-128.00;-1.00;-1.00;19482;322;7506364;-34
2023/09/14 04:56:48;;;;;;;5.20;4.20;;;;;;;-128.00;-1.00;-1.00;19471;317;7507189;-36
2023/09/14 04:59:14;;;;;;;5.90;5.30;;;;;;;-128.00;-1.00;-1.00;19485;322;7504664;-33
2023/09/14 05:01:40;;;;;;;5.30;4.60;;;;;;;-128.00;-1.00;-1.00;19459;317;7504832;-35
2023/09/14 05:04:06;;;;;;;6.10;4.70;;;;;;;-128.00;-1.00;-1.00;19433;323;7505207;-35
2023/09/14 05:06:33;;;;;;;5.20;4.70;;;;;;;-128.00;-1.00;-1.00;19462;318;7504512;-33
2023/09/14 05:08:59;;;;;;;6.10;4.80;;;;;;;-128.00;-1.00;-1.00;19452;317;7505743;-33
2023/09/14 05:11:26;;;;;;;6.30;5.60;;;;;;;-128.00;-1.00;-1.00;19431;323;7505221;-33
2023/09/14 05:13:52;;;;;;;9.30;6.00;;;;;;;-128.00;-1.00;-1.00;19401;321;7504677;-32
2023/09/14 05:16:18;;;;;;;6.10;5.10;;;;;;;-128.00;-1.00;-1.00;19437;317;7505110;-33
2023/09/14 05:18:45;;;;;;;6.60;5.80;;;;;;;-128.00;-1.00;-1.00;19381;323;7504426;-32
2023/09/14 05:21:12;;;;;;;6.70;6.00;;;;;;;-128.00;-1.00;-1.00;19035;317;7505689;-35
2023/09/14 05:23:37;;;;;;;5.20;4.40;;;;;;;-128.00;-1.00;-1.00;19033;323;7504756;-34
2023/09/14 05:26:03;;;;;;;6.20;5.60;;;;;;;-128.00;-1.00;-1.00;19057;321;7506221;-34
2023/09/14 05:28:29;;;;;;;6.80;5.30;;;;;;;-128.00;-1.00;-1.00;19013;322;7506660;-34
2023/09/14 05:30:55;;;;;;;11.90;6.40;;;;;;;-128.00;-1.00;-1.00;19462;317;7504553;-34
2023/09/14 05:33:21;;;;;;;7.70;6.80;;;;;;;-128.00;-1.00;-1.00;19446;323;7504961;-32
2023/09/14 05:35:50;;;;;;;11.10;8.00;;;;;;;-128.00;-1.00;-1.00;19451;317;7505144;-34
2023/09/14 05:38:16;;;;;;;8.90;7.10;;;;;;;-128.00;-1.00;-1.00;19029;321;7506442;-32
2023/09/14 05:40:42;;;;;;;4.60;3.10;;;;;;;-128.00;-1.00;-1.00;19041;317;7506630;-32
2023/09/14 05:43:08;;;;;;;7.50;5.30;;;;;;;-128.00;-1.00;-1.00;19019;317;7505074;-32
2023/09/14 05:45:33;;;;;;;9.10;5.80;;;;;;;-128.00;-1.00;-1.00;19006;317;7506032;-34
2023/09/14 05:48:00;;;;;;;3.90;3.20;;;;;;;-128.00;-1.00;-1.00;19011;317;7504491;-35
2023/09/14 05:50:25;;;;;;;6.00;5.20;;;;;;;-128.00;-1.00;-1.00;19015;319;7506083;-34
2023/09/14 05:52:51;;;;;;;9.10;5.20;;;;;;;-128.00;-1.00;-1.00;19037;322;7504702;-33
2023/09/14 05:55:17;;;;;;;4.90;4.50;;;;;;;-128.00;-1.00;-1.00;19031;318;7505260;-35
2023/09/14 05:57:43;;;;;;;7.90;4.90;;;;;;;-128.00;-1.00;-1.00;19005;318;7504888;-35
2023/09/14 06:00:12;;;;;;;5.00;4.50;;;;;;;-128.00;-1.00;-1.00;19003;321;7504873;-33
2023/09/14 06:02:41;;;;;;;6.70;5.90;;;;;;;-128.00;-1.00;-1.00;19025;321;7505974;-35
2023/09/14 06:05:07;;;;;;;6.70;6.00;;;;;;;-128.00;-1.00;-1.00;19022;322;7504979;-33
2023/09/14 06:07:33;;;;;;;11.10;6.80;;;;;;;-128.00;-1.00;-1.00;19044;317;7504817;-33
2023/09/14 06:09:59;;;;;;;8.10;6.90;;;;;;;-128.00;-1.00;-1.00;19430;322;7505111;-35
2023/09/14 06:12:25;;;;;;;8.50;7.10;;;;;;;-128.00;-1.00;-1.00;19430;321;7504746;-35
2023/09/14 06:14:51;;;;;;;5.80;5.30;;;;;;;-128.00;-1.00;-1.00;19454;318;7505268;-33
2023/09/14 06:17:18;;;;;;;12.30;7.90;;;;;;;-128.00;-1.00;-1.00;19027;317;7505474;-34
2023/09/14 06:19:44;;;;;;;5.90;4.60;;;;;;;-128.00;-1.00;-1.00;19028;317;7505069;-35
2023/09/14 06:22:10;;;;;;;6.20;5.70;;;;;;;-128.00;-1.00;-1.00;19016;317;7505118;-34
2023/09/14 06:24:36;;;;;;;4.10;3.70;;;;;;;-128.00;-1.00;-1.00;19038;317;7504418;-33
2023/09/14 06:27:01;;;;;;;10.00;6.80;;;;;;;-128.00;-1.00;-1.00;19017;323;7504744;-33
2023/09/14 06:29:28;;;;;;;8.70;6.30;;;;;;;-128.00;-1.00;-1.00;19441;317;7505255;-35
2023/09/14 06:31:54;;;;;;;7.40;5.90;;;;;;;-128.00;-1.00;-1.00;19459;322;7506016;-35
2023/09/14 06:34:20;;;;;;;6.70;5.90;;;;;;;-128.00;-1.00;-1.00;19446;318;7504610;-35
2023/09/14 06:36:46;;;;;;;6.90;5.50;;;;;;;-128.00;-1.00;-1.00;19426;323;7506249;-35
2023/09/14 06:39:13;;;;;;;5.90;4.60;;;;;;;-128.00;-1.00;-1.00;19444;323;7504961;-35
2023/09/14 06:41:39;;;;;;;6.00;4.60;;;;;;;-128.00;-1.00;-1.00;18994;317;7506434;-33
2023/09/14 06:44:05;;;;;;;3.80;3.30;;;;;;;-128.00;-1.00;-1.00;19025;317;7505277;-33
2023/09/14 06:46:31;;;;;;;5.40;3.70;;;;;;;-128.00;-1.00;-1.00;19029;322;7504973;-35
2023/09/14 06:48:57;;;;;;;5.50;5.00;;;;;;;-128.00;-1.00;-1.00;19015;318;7504460;-35
2023/09/14 06:51:23;;;;;;;4.50;3.70;;;;;;;-128.00;-1.00;-1.00;19452;318;7504959;-33
2023/09/14 06:53:51;;;;;;;3.50;3.20;;;;;;;-128.00;-1.00;-1.00;19012;317;7504896;-35
2023/09/14 06:56:16;;;;;;;4.70;4.00;;;;;;;-128.00;-1.00;-1.00;19002;317;7504663;-34
2023/09/14 06:58:43;;;;;;;5.50;4.80;;;;;;;-128.00;-1.00;-1.00;19445;318;7504984;-36
2023/09/14 07:01:09;;;;;;;4.40;3.80;;;;;;;-128.00;-1.00;-1.00;19407;322;7504443;-36
2023/09/14 07:03:35;;;;;;;7.50;4.60;;;;;;;-128.00;-1.00;-1.00;19450;318;7504599;-34
2023/09/14 07:06:02;;;;;;;5.30;3.90;;;;;;;-128.00;-1.00;-1.00;19449;322;7504952;-34
2023/09/14 07:08:27;;;;;;;6.80;3.60;;;;;;;-128.00;-1.00;-1.00;19049;317;7504422;-33
2023/09/14 07:10:54;;;;;;;5.10;3.40;;;;;;;-128.00;-1.00;-1.00;18995;323;7505231;-33
2023/09/14 07:13:20;;;;;;;8.90;4.60;;;;;;;-128.00;-1.00;-1.00;19014;323;7506368;-35
2023/09/14 07:15:46;;;;;;;4.00;3.60;;;;;;;-128.00;-1.00;-1.00;19028;322;7505498;-34
2023/09/14 07:18:27;;;;;;;3.40;2.70;;;;;;;-128.00;-1.00;-1.00;19052;323;7505132;-36
2023/09/14 07:20:54;;;;;;;3.10;2.80;;;;;;;-128.00;-1.00;-1.00;19009;318;7505105;-36
2023/09/14 07:23:20;;;;;;;4.10;3.70;;;;;;;-128.00;-1.00;-1.00;19052;318;7505132;-34
2023/09/14 07:25:47;;;;;;;4.40;3.30;;;;;;;-128.00;-1.00;-1.00;19011;322;7505363;-35
2023/09/14 07:28:12;;;;;;;6.90;3.50;;;;;;;-128.00;-1.00;-1.00;19007;318;7504685;-33
2023/09/14 07:30:38;;;;;;;5.20;4.00;;;;;;;-128.00;-1.00;-1.00;19429;324;7504605;-36
2023/09/14 07:33:05;;;;;;;4.60;3.70;;;;;;;-128.00;-1.00;-1.00;19452;318;7506182;-36
2023/09/14 07:35:31;;;;;;;7.40;4.00;;;;;;;-128.00;-1.00;-1.00;19447;317;7505189;-36
2023/09/14 07:37:57;;;;;;;3.80;3.40;;;;;;;-128.00;-1.00;-1.00;19414;319;7505474;-36
2023/09/14 07:40:23;;;;;;;4.00;3.60;;;;;;;-128.00;-1.00;-1.00;19474;323;7504476;-34
2023/09/14 07:42:49;;;;;;;3.00;2.70;;;;;;;-128.00;-1.00;-1.00;19421;317;7505188;-36
2023/09/14 07:45:15;;;;;;;3.70;3.30;;;;;;;-128.00;-1.00;-1.00;19437;318;7505271;-35
2023/09/14 07:47:42;;;;;;;11.30;3.40;;;;;;;-128.00;-1.00;-1.00;19420;318;7504996;-35
2023/09/14 07:50:08;;;;;;;3.70;3.30;;;;;;;-128.00;-1.00;-1.00;19449;317;7504939;-34
2023/09/14 07:52:34;;;;;;;7.40;3.30;;;;;;;-128.00;-1.00;-1.00;19016;317;7506253;-35
2023/09/14 07:55:00;;;;;;;3.90;3.40;;;;;;;-128.00;-1.00;-1.00;19045;318;7504790;-34
2023/09/14 07:57:26;;;;;;;2.80;2.30;;;;;;;-128.00;-1.00;-1.00;19055;317;7504783;-34
2023/09/14 07:59:52;;;;;;;5.50;4.70;;;;;;;-128.00;-1.00;-1.00;19437;317;7505093;-34
2023/09/14 08:02:19;;;;;;;10.80;2.90;;;;;;;-128.00;-1.00;-1.00;19459;322;7505875;-36
2023/09/14 08:04:44;;;;;;;4.00;3.00;;;;;;;-128.00;-1.00;-1.00;19007;319;7505476;-33
2023/09/14 08:07:10;;;;;;;5.60;3.60;;;;;;;-128.00;-1.00;-1.00;19013;323;7506496;-36
2023/09/14 08:09:36;;;;;;;4.50;3.90;;;;;;;-128.00;-1.00;-1.00;19008;323;7505453;-34
2023/09/14 08:12:02;;;;;;;4.30;3.60;;;;;;;-128.00;-1.00;-1.00;19436;323;7506317;-34
2023/09/14 08:14:29;;;;;;;4.00;3.70;;;;;;;-128.00;-1.00;-1.00;19457;323;7504586;-34
2023/09/14 08:16:55;;;;;;;7.30;3.50;;;;;;;-128.00;-1.00;-1.00;19404;318;7505378;-36
2023/09/14 08:19:21;;;;;;;3.70;2.70;;;;;;;-128.00;-1.00;-1.00;19420;322;7505462;-33
2023/09/14 08:21:47;;;;;;;3.80;2.30;;;;;;;-128.00;-1.00;-1.00;19394;319;7504525;-33
2023/09/14 08:24:14;;;;;;;6.90;4.20;;;;;;;-128.00;-1.00;-1.00;19472;323;7505898;-33
2023/09/14 08:26:40;;;;;;;4.50;3.60;;;;;;;-128.00;-1.00;-1.00;19444;318;7504666;-36
2023/09/14 08:29:06;;;;;;;4.40;3.00;;;;;;;-128.00;-1.00;-1.00;19430;323;7504463;-33
2023/09/14 08:31:32;;;;;;;5.20;3.50;;;;;;;-128.00;-1.00;-1.00;19425;317;7506051;-33
2023/09/14 08:33:58;;;;;;;8.30;3.40;;;;;;;-128.00;-1.00;-1.00;19450;323;7504839;-36
2023/09/14 08:36:25;;;;;;;5.30;4.70;;;;;;;-128.00;-1.00;-1.00;19463;317;7504527;-36
2023/09/14 08:38:51;;;;;;;4.00;3.40;;;;;;;-128.00;-1.00;-1.00;19033;323;7505502;-32
2023/09/14 08:41:25;;;;;;;4.00;3.50;;;;;;;-128.00;-1.00;-1.00;19447;317;7504849;-36
2023/09/14 08:43:50;;;;;;;5.20;3.00;;;;;;;-128.00;-1.00;-1.00;18990;318;7505907;-36
2023/09/14 08:46:17;;;;;;;6.30;4.60;;;;;;;-128.00;-1.00;-1.00;19429;324;7505547;-33
2023/09/14 08:48:43;;;;;;;13.00;3.50;;;;;;;-128.00;-1.00;-1.00;19007;317;7506671;-33
2023/09/14 08:51:10;;;;;;;3.30;3.00;;;;;;;-128.00;-1.00;-1.00;19034;317;7504796;-33
2023/09/14 08:53:36;;;;;;;4.50;3.40;;;;;;;-128.00;-1.00;-1.00;19053;317;7504454;-33
2023/09/14 08:56:02;;;;;;;3.90;3.60;;;;;;;-128.00;-1.00;-1.00;19008;319;7506781;-36
2023/09/14 08:58:28;;;;;;;4.40;4.00;;;;;;;-128.00;-1.00;-1.00;19024;324;7504720;-32
2023/09/14 09:00:53;;;;;;;4.40;4.00;;;;;;;-128.00;-1.00;-1.00;19034;317;7504389;-36
2023/09/14 09:03:22;;;;;;;5.10;3.90;;;;;;;-128.00;-1.00;-1.00;19435;317;7505712;-33
2023/09/14 09:05:48;;;;;;;5.70;4.00;;;;;;;-128.00;-1.00;-1.00;19001;323;7505324;-37
2023/09/14 09:08:15;;;;;;;2.90;2.60;;;;;;;-128.00;-1.00;-1.00;19026;323;7505577;-36
2023/09/14 09:10:42;;;;;;;3.80;2.50;;;;;;;-128.00;-1.00;-1.00;19018;317;7504650;-33
2023/09/14 09:13:07;;;;;;;3.70;3.00;;;;;;;-128.00;-1.00;-1.00;19013;322;7504747;-33
2023/09/14 09:15:36;;;;;;;5.30;3.40;;;;;;;-128.00;-1.00;-1.00;19023;317;7504547;-33
2023/09/14 09:18:06;;;;;;;5.70;3.50;;;;;;;-128.00;-1.00;-1.00;19029;322;7504607;-33
2023/09/14 09:20:33;;;;;;;4.70;3.10;;;;;;;-128.00;-1.00;-1.00;19043;317;7506457;-37
2023/09/14 09:22:59;;;;;;;4.70;3.10;;;;;;;-128.00;-1.00;-1.00;18702;318;8170244;-36
2023/09/14 09:25:25;;;;;;;3.40;2.70;;;;;;;-128.00;-1.00;-1.00;19024;317;7505119;-33
2023/09/14 09:27:58;;;;;;;2.00;1.40;;;;;;;-128.00;-1.00;-1.00;19025;323;7504748;-36
2023/09/14 09:30:29;;;;;;;3.60;1.30;;;;;;;-128.00;-1.00;-1.00;19032;321;7504888;-33
2023/09/14 09:32:55;;;;;;;2.90;2.20;;;;;;;-128.00;-1.00;-1.00;19041;322;7506285;-34
2023/09/14 09:35:22;;;;;;;3.10;1.40;;;;;;;-128.00;-1.00;-1.00;18977;322;7505663;-37
2023/09/14 09:37:49;;;;;;;2.20;0.90;;;;;;;-128.00;-1.00;-1.00;19021;318;7504790;-32
2023/09/14 09:40:16;;;;;;;1.20;0.80;;;;;;;-128.00;-1.00;-1.00;19046;317;7504534;-32
2023/09/14 09:42:42;;;;;;;1.00;0.80;;;;;;;-128.00;-1.00;-1.00;19023;318;7504797;-36
2023/09/14 09:45:09;;;;;;;3.50;0.90;;;;;;;-128.00;-1.00;-1.00;19041;321;7506279;-36
2023/09/14 09:47:38;;;;;;;6.00;0.90;;;;;;;-128.00;-1.00;-1.00;19015;323;7505293;-33
2023/09/14 09:50:11;;;;;;;1.60;0.90;;;;;;;-128.00;-1.00;-1.00;19048;318;7504671;-36
2023/09/14 09:52:38;;;;;;;1.70;0.70;;;;;;;-128.00;-1.00;-1.00;19005;319;7505251;-33
2023/09/14 09:55:05;;;;;;;0.70;0.30;;;;;;;-128.00;-1.00;-1.00;19029;322;7504820;-32
2023/09/14 09:57:35;;;;;;;2.60;0.90;;;;;;;-128.00;-1.00;-1.00;18995;318;7504752;-32
2023/09/14 10:00:11;;;;;;;0.80;0.80;;;;;;;-128.00;-1.00;-1.00;19023;322;7505161;-32
2023/09/14 10:02:37;;;;;;;7.30;0.70;;;;;;;-128.00;-1.00;-1.00;19019;317;7504970;-32
2023/09/14 10:05:03;;;;;;;0.70;0.60;;;;;;;-128.00;-1.00;-1.00;19048;321;7505383;-36
2023/09/14 10:07:29;;;;;;;1.40;0.90;;;;;;;-128.00;-1.00;-1.00;19034;323;7504754;-32
2023/09/14 10:09:55;;;;;;;1.20;0.70;;;;;;;-128.00;-1.00;-1.00;19460;318;7504462;-32
2023/09/14 10:12:24;;;;;;;0.90;0.60;;;;;;;-128.00;-1.00;-1.00;19466;318;7504945;-36
2023/09/14 10:14:52;;;;;;;4.70;0.80;;;;;;;-128.00;-1.00;-1.00;18994;322;7506220;-32
2023/09/14 10:17:23;;;;;;;1.40;0.80;;;;;;;-128.00;-1.00;-1.00;19018;317;7504999;-36
2023/09/14 10:19:49;;;;;;;1.40;0.80;;;;;;;-128.00;-1.00;-1.00;19029;317;7504553;-32
2023/09/14 10:22:15;;;;;;;0.90;0.60;;;;;;;-128.00;-1.00;-1.00;19013;317;7505987;-36
2023/09/14 10:24:41;;;;;;;2.10;0.50;;;;;;;-128.00;-1.00;-1.00;19005;318;7504817;-34
2023/09/14 10:27:10;;;;;;;0.40;0.40;;;;;;;-128.00;-1.00;-1.00;18995;317;7504755;-36
2023/09/14 10:29:37;;;;;;;0.90;0.50;;;;;;;-128.00;-1.00;-1.00;19039;317;7506469;-32
2023/09/14 10:32:03;;;;;;;3.40;1.70;;;;;;;-128.00;-1.00;-1.00;19039;318;7505303;-32
2023/09/14 10:34:29;;;;;;;1.00;0.60;;;;;;;-128.00;-1.00;-1.00;19052;318;7505446;-35
2023/09/14 10:36:55;;;;;;;25.80;1.10;;;;;;;-128.00;-1.00;-1.00;19017;322;7504682;-32
2023/09/14 10:39:23;;;;;;;1.50;0.70;;;;;;;-128.00;-1.00;-1.00;18998;318;7504609;-32
2023/09/14 10:41:48;;;;;;;2.70;1.10;;;;;;;-128.00;-1.00;-1.00;19022;321;7505117;-35
2023/09/14 10:44:15;;;;;;;1.60;0.90;;;;;;;-128.00;-1.00;-1.00;18985;323;7506323;-36
2023/09/14 10:46:42;;;;;;;3.10;1.10;;;;;;;-128.00;-1.00;-1.00;19434;318;7504893;-32
2023/09/14 10:49:08;;;;;;;4.50;0.90;;;;;;;-128.00;-1.00;-1.00;19010;322;7505464;-36
2023/09/14 10:51:35;;;;;;;2.60;1.30;;;;;;;-128.00;-1.00;-1.00;19022;322;7505653;-31
2023/09/14 10:54:01;;;;;;;0.70;0.50;;;;;;;-128.00;-1.00;-1.00;19006;317;7506395;-32
2023/09/14 10:56:34;;;;;;;2.10;1.20;;;;;;;-128.00;-1.00;-1.00;19022;317;7504708;-32
2023/09/14 10:59:08;;;;;;;1.90;1.10;;;;;;;-128.00;-1.00;-1.00;19047;322;7506256;-32
2023/09/14 11:01:50;;;;;;;1.20;0.80;;;;;;;-128.00;-1.00;-1.00;19020;323;7505277;-35
2023/09/14 11:04:19;;;;;;;25.30;1.80;;;;;;;-128.00;-1.00;-1.00;19009;323;7505251;-35
2023/09/14 11:06:52;;;;;;;1.50;0.40;;;;;;;-128.00;-1.00;-1.00;19053;323;7505236;-32
2023/09/14 11:09:20;;;;;;;3.20;1.30;;;;;;;-128.00;-1.00;-1.00;19000;319;7505080;-35
2023/09/14 11:11:46;;;;;;;1.60;0.70;;;;;;;-128.00;-1.00;-1.00;19041;318;7505254;-35
2023/09/14 11:14:13;;;;;;;1.10;0.70;;;;;;;-128.00;-1.00;-1.00;19026;318;7504472;-35
2023/09/14 11:16:46;;;;;;;2.40;0.90;;;;;;;-128.00;-1.00;-1.00;19039;322;7504842;-35
2023/09/14 11:19:36;;;;;;;6.20;1.30;;;;;;;-128.00;-1.00;-1.00;19015;318;7506224;-35
2023/09/14 11:22:11;;;;;;;1.00;0.90;;;;;;;-128.00;-1.00;-1.00;19056;317;7504692;-36
2023/09/14 11:24:37;;;;;;;2.20;1.30;;;;;;;-128.00;-1.00;-1.00;19020;317;7505122;-36
2023/09/14 11:27:03;;;;;;;5.00;1.00;;;;;;;-128.00;-1.00;-1.00;19468;323;7504541;-36
2023/09/14 11:29:32;;;;;;;1.90;1.10;;;;;;;-128.00;-1.00;-1.00;19422;323;7505412;-36
2023/09/14 11:32:03;;;;;;;3.30;1.30;;;;;;;-128.00;-1.00;-1.00;19018;318;7504439;-36
2023/09/14 11:34:32;;;;;;;2.00;1.10;;;;;;;-128.00;-1.00;-1.00;19055;322;7504857;-36
2023/09/14 11:36:59;;;;;;;5.20;1.00;;;;;;;-128.00;-1.00;-1.00;18994;323;7504822;-36
2023/09/14 11:39:25;;;;;;;3.90;1.70;;;;;;;-128.00;-1.00;-1.00;19038;318;7504969;-36
2023/09/14 11:41:57;;;;;;;2.10;1.00;;;;;;;-128.00;-1.00;-1.00;19033;322;7505467;-32
2023/09/14 11:44:24;;;;;;;6.90;1.00;;;;;;;-128.00;-1.00;-1.00;18996;322;7505070;-32
2023/09/14 11:46:50;;;;;;;1.90;0.90;;;;;;;-128.00;-1.00;-1.00;18984;321;7505149;-32
2023/09/14 11:49:16;;;;;;;2.10;1.50;;;;;;;-128.00;-1.00;-1.00;19002;322;7505014;-32
2023/09/14 11:51:42;;;;;;;3.40;1.50;;;;;;;-128.00;-1.00;-1.00;19019;322;7504847;-32
2023/09/14 11:54:08;;;;;;;2.10;1.20;;;;;;;-128.00;-1.00;-1.00;19446;318;7506165;-32
2023/09/14 11:56:35;;;;;;;2.80;1.90;;;;;;;-128.00;-1.00;-1.00;19427;324;7505770;-31
2023/09/14 11:59:02;;;;;;;2.10;0.90;;;;;;;-128.00;-1.00;-1.00;19045;318;7504588;-33
2023/09/14 12:01:29;;;;;;;0.90;0.90;;;;;;;-128.00;-1.00;-1.00;19013;318;7504558;-35
2023/09/14 12:03:56;;;;;;;3.00;2.00;;;;;;;-128.00;-1.00;-1.00;19021;323;7506188;-35
2023/09/14 12:06:22;;;;;;;10.70;2.60;;;;;;;-128.00;-1.00;-1.00;19031;317;7506205;-36
2023/09/14 12:08:48;;;;;;;1.70;1.20;;;;;;;-128.00;-1.00;-1.00;19008;318;7505070;-32
2023/09/14 12:11:14;;;;;;;1.60;1.50;;;;;;;-128.00;-1.00;-1.00;18987;318;7504834;-31